createdAt,value
2018-09-04T00:01:44.459Z,54.16
2018-09-04T00:06:48.149Z,54.56
2018-09-04T00:11:51.795Z,54.10
2018-09-04T00:16:55.477Z,54.26
2018-09-04T00:21:59.215Z,54.24
2018-09-04T00:27:02.957Z,54.60
2018-09-04T00:32:07.004Z,54.50
2018-09-04T00:37:10.831Z,54.23
2018-09-04T00:42:14.489Z,54.33
2018-09-04T00:47:18.143Z,54.32
2018-09-04T00:52:21.846Z,54.27
2018-09-04T00:57:25.522Z,53.97
2018-09-04T01:02:29.161Z,54.13
2018-09-04T01:07:32.849Z,54.03
2018-09-04T01:12:36.642Z,54.21
2018-09-04T01:17:40.280Z,54.26
2018-09-04T01:22:43.953Z,54.31
2018-09-04T01:27:47.717Z,53.84
2018-09-04T01:32:51.606Z,54.23
2018-09-04T01:37:55.253Z,54.20
2018-09-04T01:42:59.008Z,53.84
2018-09-04T01:48:06.389Z,53.98
2018-09-04T01:53:10.042Z,54.19
2018-09-04T01:58:13.683Z,54.00
2018-09-04T02:03:17.416Z,54.05
2018-09-04T02:08:21.090Z,53.86
2018-09-04T02:13:24.698Z,53.99
2018-09-04T02:18:28.299Z,53.96
2018-09-04T02:23:31.989Z,53.84
2018-09-04T02:28:35.591Z,53.87
2018-09-04T02:33:39.318Z,54.14
2018-09-04T02:38:42.899Z,53.98
2018-09-04T02:43:46.584Z,54.16
2018-09-04T02:48:50.267Z,53.84
2018-09-04T02:53:54.049Z,53.79
2018-09-04T02:58:57.940Z,53.53
2018-09-04T03:04:01.605Z,53.72
2018-09-04T03:09:06.837Z,53.81
2018-09-04T03:14:10.522Z,53.78
2018-09-04T03:19:14.157Z,53.53
2018-09-04T03:24:17.818Z,53.87
2018-09-04T03:29:21.486Z,53.97
2018-09-04T03:34:25.231Z,53.80
2018-09-04T03:39:29.972Z,53.62
2018-09-04T03:44:33.650Z,53.76
2018-09-04T03:49:37.774Z,54.82
2018-09-04T03:54:41.426Z,54.81
2018-09-04T03:59:45.101Z,54.42
2018-09-04T04:04:48.726Z,55.26
2018-09-04T04:09:52.406Z,55.64
2018-09-04T04:14:56.116Z,55.94
2018-09-04T04:19:59.766Z,55.54
2018-09-04T04:25:06.894Z,54.90
2018-09-04T04:30:10.665Z,55.25
2018-09-04T04:35:14.454Z,55.19
2018-09-04T04:40:18.162Z,54.92
2018-09-04T04:45:21.833Z,55.23
2018-09-04T04:50:25.567Z,55.36
2018-09-04T04:55:29.483Z,55.07
2018-09-04T05:00:33.695Z,54.84
2018-09-04T05:05:37.398Z,56.17
2018-09-04T05:10:41.097Z,55.34
2018-09-04T05:15:44.854Z,54.95
2018-09-04T05:20:48.534Z,55.64
2018-09-04T05:25:52.213Z,54.60
2018-09-04T05:30:56.014Z,54.86
2018-09-04T05:36:00.147Z,54.51
2018-09-04T05:41:03.886Z,54.84
2018-09-04T05:46:10.483Z,55.91
2018-09-04T05:51:14.176Z,55.95
2018-09-04T05:56:17.799Z,56.22
2018-09-04T06:01:21.529Z,56.03
2018-09-04T06:06:25.211Z,56.91
2018-09-04T06:11:28.983Z,56.63
2018-09-04T06:16:32.713Z,56.29
2018-09-04T06:21:36.344Z,57.02
2018-09-04T06:26:40.002Z,58.13
2018-09-04T06:31:43.677Z,57.87
2018-09-04T06:36:47.468Z,58.21
2018-09-04T06:41:51.119Z,56.70
2018-09-04T06:46:54.777Z,56.71
2018-09-04T06:51:58.482Z,56.10
2018-09-04T06:57:02.233Z,56.16
2018-09-04T07:02:05.968Z,55.13
2018-09-04T07:07:09.687Z,54.78
2018-09-04T07:12:13.440Z,56.89
2018-09-04T07:17:17.063Z,57.81
2018-09-04T07:22:20.698Z,56.16
2018-09-04T07:27:24.422Z,54.85
2018-09-04T07:32:28.083Z,54.55
2018-09-04T07:37:31.796Z,54.20
2018-09-04T07:42:35.431Z,53.64
2018-09-04T07:47:39.131Z,53.86
2018-09-04T07:52:42.768Z,53.35
2018-09-04T07:57:46.458Z,53.45
2018-09-04T08:02:50.163Z,53.53
2018-09-04T08:07:53.869Z,53.42
2018-09-04T08:12:57.608Z,53.13
2018-09-04T08:18:01.800Z,53.09
2018-09-04T08:23:05.494Z,53.58
2018-09-04T08:28:09.140Z,52.95
2018-09-04T08:33:12.928Z,53.04
2018-09-04T08:38:16.582Z,53.14
2018-09-04T08:43:20.318Z,52.98
2018-09-04T08:48:23.941Z,53.16
2018-09-04T08:53:27.608Z,52.87
2018-09-04T08:58:31.239Z,52.94
2018-09-04T09:03:34.874Z,52.74
2018-09-04T09:08:38.603Z,52.85
2018-09-04T09:13:42.248Z,52.67
2018-09-04T09:18:46.003Z,52.94
2018-09-04T09:23:49.758Z,53.14
2018-09-04T09:28:53.429Z,53.25
2018-09-04T09:33:57.100Z,53.47
2018-09-04T09:39:01.146Z,52.70
2018-09-04T09:44:04.858Z,53.21
2018-09-04T09:49:09.532Z,52.70
2018-09-04T09:54:13.241Z,52.61
2018-09-04T09:59:16.960Z,54.11
2018-09-04T10:04:21.441Z,52.92
2018-09-04T10:09:25.144Z,52.69
2018-09-04T10:14:29.261Z,52.24
2018-09-04T10:19:33.062Z,52.57
2018-09-04T10:24:36.779Z,52.44
2018-09-04T10:29:40.472Z,51.97
2018-09-04T10:34:44.149Z,51.97
2018-09-04T10:39:53.222Z,51.67
2018-09-04T10:44:57.004Z,51.59
2018-09-04T10:50:05.374Z,51.62
2018-09-04T10:55:09.086Z,51.39
2018-09-04T11:00:12.784Z,51.27
2018-09-04T11:05:16.478Z,51.43
2018-09-04T11:10:20.317Z,50.92
2018-09-04T11:15:23.994Z,51.52
2018-09-04T11:20:27.759Z,51.41
2018-09-04T11:25:31.478Z,51.73
2018-09-04T11:30:35.221Z,51.70
2018-09-04T11:35:38.868Z,51.75
2018-09-04T11:40:42.741Z,51.81
2018-09-04T11:45:46.462Z,52.09
2018-09-04T11:50:50.146Z,52.22
2018-09-04T11:55:53.876Z,52.12
2018-09-04T12:00:57.612Z,52.07
2018-09-04T12:06:01.305Z,52.05
2018-09-04T12:11:05.006Z,52.56
2018-09-04T12:16:08.670Z,52.33
2018-09-04T12:21:12.989Z,52.34
2018-09-04T12:26:16.602Z,52.38
2018-09-04T12:31:20.281Z,52.50
2018-09-04T12:36:23.990Z,51.90
2018-09-04T12:41:27.634Z,52.06
2018-09-04T12:46:31.578Z,51.83
2018-09-04T12:51:35.232Z,51.83
2018-09-04T12:56:38.945Z,52.05
2018-09-04T13:01:42.636Z,51.97
2018-09-04T13:06:46.302Z,51.93
2018-09-04T13:11:49.993Z,51.34
2018-09-04T13:16:53.725Z,51.71
2018-09-04T13:21:57.427Z,51.66
2018-09-04T13:27:01.078Z,51.69
2018-09-04T13:32:04.713Z,51.10
2018-09-04T13:37:09.493Z,51.76
2018-09-04T13:42:13.601Z,51.68
2018-09-04T13:47:17.357Z,51.89
2018-09-04T13:52:21.621Z,52.13
2018-09-04T13:57:26.090Z,52.59
2018-09-04T14:02:29.938Z,52.62
2018-09-04T14:07:33.697Z,52.42
2018-09-04T14:12:37.382Z,52.63
2018-09-04T14:17:41.049Z,52.31
2018-09-04T14:22:44.775Z,52.08
2018-09-04T14:27:48.445Z,52.23
2018-09-04T14:32:52.181Z,52.11
2018-09-04T14:37:56.603Z,52.37
2018-09-04T14:43:00.274Z,51.95
2018-09-04T14:48:04.059Z,51.99
2018-09-04T14:53:08.302Z,52.47
2018-09-04T14:58:12.130Z,52.27
2018-09-04T15:03:16.050Z,52.30
2018-09-04T15:08:19.661Z,52.25
2018-09-04T15:13:23.289Z,52.51
2018-09-04T15:18:26.949Z,52.22
2018-09-04T15:23:30.750Z,52.33
2018-09-04T15:28:34.510Z,51.97
2018-09-04T15:33:38.521Z,51.90
2018-09-04T15:38:42.278Z,51.42
2018-09-04T15:43:45.995Z,51.51
2018-09-04T15:48:54.817Z,51.21
2018-09-04T15:54:00.169Z,50.93
2018-09-04T15:59:03.992Z,50.72
2018-09-04T16:04:08.117Z,50.72
2018-09-04T16:09:11.731Z,50.76
2018-09-04T16:14:15.364Z,50.92
2018-09-04T16:19:19.127Z,50.04
2018-09-04T16:24:22.904Z,50.36
2018-09-04T16:29:26.620Z,50.75
2018-09-04T16:34:30.327Z,50.78
2018-09-04T16:39:34.179Z,50.77
2018-09-04T16:44:38.741Z,50.98
2018-09-04T16:49:42.401Z,51.27
2018-09-04T16:55:14.318Z,48.65
2018-09-04T17:00:18.538Z,50.89
2018-09-04T17:05:22.453Z,51.08
2018-09-04T17:10:26.237Z,51.32
2018-09-04T17:15:30.059Z,51.61
2018-09-04T17:20:34.003Z,51.19
2018-09-04T17:25:37.637Z,51.64
2018-09-04T17:30:41.335Z,51.97
2018-09-04T17:35:45.703Z,51.76
2018-09-04T17:40:49.535Z,51.67
2018-09-04T17:45:53.566Z,51.93
2018-09-04T17:50:57.297Z,51.57
2018-09-04T17:56:03.531Z,51.86
2018-09-04T18:01:07.769Z,51.69
2018-09-04T18:06:14.690Z,51.58
2018-09-04T18:11:18.659Z,51.53
2018-09-04T18:16:23.126Z,51.69
2018-09-04T18:21:26.978Z,51.69
2018-09-04T18:26:30.848Z,51.42
2018-09-04T18:31:34.921Z,51.45
2018-09-04T18:36:39.709Z,51.21
2018-09-04T18:41:45.058Z,50.95
2018-09-04T18:46:51.254Z,51.30
2018-09-04T18:51:58.122Z,50.83
2018-09-04T18:57:01.996Z,50.96
2018-09-04T19:02:05.878Z,50.70
2018-09-04T19:07:11.285Z,50.85
2018-09-04T19:12:17.128Z,49.91
2018-09-04T19:17:21.370Z,50.03
2018-09-04T19:22:25.746Z,50.21
2018-09-04T19:27:31.523Z,50.11
2018-09-04T19:32:36.497Z,50.12
2018-09-04T19:37:42.687Z,49.91
2018-09-04T19:42:48.867Z,49.65
2018-09-04T19:47:55.002Z,49.45
2018-09-04T19:53:00.879Z,49.60
2018-09-04T19:58:06.644Z,49.35
2018-09-04T20:03:12.063Z,49.38
2018-09-04T20:08:16.020Z,49.02
2018-09-04T20:13:19.955Z,48.80
2018-09-04T20:18:24.488Z,48.79
2018-09-04T20:23:29.250Z,48.29
2018-09-04T20:28:33.001Z,48.74
2018-09-04T20:33:36.737Z,48.47
2018-09-04T20:38:40.517Z,48.07
2018-09-04T20:43:44.292Z,48.07
2018-09-04T20:48:48.432Z,48.25
2018-09-04T20:53:53.605Z,47.79
2018-09-04T20:59:08.569Z,47.78
2018-09-04T21:04:23.473Z,47.87
2018-09-04T21:09:38.761Z,47.65
2018-09-04T21:14:42.820Z,47.40
2018-09-04T21:19:46.615Z,47.67
2018-09-04T21:24:50.394Z,46.91
2018-09-04T21:29:54.181Z,47.55
2018-09-04T21:34:57.946Z,47.12
2018-09-04T21:40:05.070Z,46.88
2018-09-04T21:45:09.186Z,46.92
2018-09-04T21:50:13.182Z,47.00
2018-09-04T21:55:16.923Z,46.77
2018-09-04T22:00:26.470Z,47.03
2018-09-04T22:05:30.278Z,46.91
2018-09-04T22:10:34.964Z,46.48
2018-09-04T22:15:38.903Z,46.78
2018-09-04T22:20:42.896Z,46.50
2018-09-04T22:25:46.690Z,46.49
2018-09-04T22:30:50.578Z,46.67
2018-09-04T22:35:54.426Z,46.27
2018-09-04T22:40:58.249Z,46.42
2018-09-04T22:46:02.135Z,46.03
2018-09-04T22:51:11.097Z,46.00
2018-09-04T22:56:15.331Z,45.84
2018-09-04T23:01:19.026Z,45.93
2018-09-04T23:06:22.733Z,46.12
2018-09-04T23:11:26.549Z,45.68
2018-09-04T23:16:30.331Z,45.68
2018-09-04T23:21:34.095Z,45.58
2018-09-04T23:26:37.816Z,45.75
2018-09-04T23:31:41.460Z,45.67
2018-09-04T23:36:46.066Z,45.98
2018-09-04T23:41:49.722Z,46.32
2018-09-04T23:46:53.482Z,46.20
2018-09-04T23:51:57.153Z,46.59
2018-09-04T23:57:00.856Z,46.84
